createdAt,value
2023-03-21T00:01:44.927Z,2.65
2023-03-21T00:04:12.007Z,2.30
2023-03-21T00:06:38.675Z,3.60
2023-03-21T00:09:05.152Z,2.75
2023-03-21T00:11:31.666Z,3.25
2023-03-21T00:14:02.222Z,3.10
2023-03-21T00:16:34.375Z,2.90
2023-03-21T00:19:06.365Z,3.38
2023-03-21T00:21:46.491Z,3.17
2023-03-21T00:24:18.532Z,3.72
2023-03-21T00:26:45.154Z,3.90
2023-03-21T00:29:11.795Z,3.22
2023-03-21T00:31:38.222Z,4.63
2023-03-21T00:34:04.773Z,5.30
2023-03-21T00:36:31.962Z,5.28
2023-03-21T00:39:00.715Z,4.18
2023-03-21T00:41:41.513Z,3.92
2023-03-21T00:44:09.856Z,3.25
2023-03-21T00:46:45.457Z,3.90
2023-03-21T00:49:18.159Z,3.03
2023-03-21T00:51:44.570Z,3.40
2023-03-21T00:54:11.677Z,3.75
2023-03-21T00:56:38.282Z,2.95
2023-03-21T00:59:04.685Z,3.38
2023-03-21T01:01:32.273Z,2.85
2023-03-21T01:04:07.602Z,3.50
2023-03-21T01:06:39.266Z,2.90
2023-03-21T01:09:06.619Z,3.08
2023-03-21T01:11:33.065Z,5.38
2023-03-21T01:14:14.791Z,3.10
2023-03-21T01:16:46.212Z,3.75
2023-03-21T01:19:25.013Z,3.20
2023-03-21T01:21:52.867Z,3.40
2023-03-21T01:24:19.289Z,2.92
2023-03-21T01:26:45.707Z,3.00
2023-03-21T01:29:12.090Z,3.10
2023-03-21T01:31:38.818Z,3.15
2023-03-21T01:34:06.489Z,3.28
2023-03-21T01:36:33.238Z,3.33
2023-03-21T01:39:04.311Z,3.33
2023-03-21T01:41:47.766Z,3.88
2023-03-21T01:44:32.200Z,3.30
2023-03-21T01:47:10.633Z,3.67
2023-03-21T01:49:50.271Z,4.32
2023-03-21T01:52:36.390Z,3.80
2023-03-21T01:55:07.744Z,4.55
2023-03-21T01:57:58.534Z,4.25
2023-03-21T02:00:32.859Z,3.95
2023-03-21T02:03:29.457Z,4.10
2023-03-21T02:06:32.774Z,3.90
2023-03-21T02:09:10.019Z,3.67
2023-03-21T02:11:37.710Z,4.03
2023-03-21T02:14:07.097Z,5.82
2023-03-21T02:16:55.245Z,4.47
2023-03-21T02:19:32.013Z,4.88
2023-03-21T02:22:20.547Z,3.90
2023-03-21T02:25:16.285Z,3.97
2023-03-21T02:27:51.176Z,3.58
2023-03-21T02:30:51.432Z,4.30
2023-03-21T02:33:21.620Z,5.05
2023-03-21T02:36:05.624Z,3.83
2023-03-21T02:38:48.185Z,4.72
2023-03-21T02:41:40.081Z,5.18
2023-03-21T02:44:11.663Z,4.03
2023-03-21T02:46:53.643Z,3.85
2023-03-21T02:49:23.445Z,3.58
2023-03-21T02:51:50.772Z,3.75
2023-03-21T02:54:35.095Z,3.47
2023-03-21T02:57:05.991Z,3.20
2023-03-21T02:59:35.751Z,2.97
2023-03-21T03:02:05.135Z,3.78
2023-03-21T03:04:31.681Z,4.40
2023-03-21T03:07:01.098Z,3.83
2023-03-21T03:09:30.562Z,3.30
2023-03-21T03:12:05.145Z,4.50
2023-03-21T03:14:56.494Z,3.40
2023-03-21T03:17:38.134Z,3.10
2023-03-21T03:20:30.437Z,3.00
2023-03-21T03:22:56.781Z,3.85
2023-03-21T03:25:43.744Z,3.47
2023-03-21T03:28:15.568Z,2.93
2023-03-21T03:30:51.240Z,4.28
2023-03-21T03:33:29.771Z,3.63
2023-03-21T03:36:05.071Z,3.70
2023-03-21T03:38:34.630Z,3.42
2023-03-21T03:41:05.258Z,5.07
2023-03-21T03:43:41.554Z,3.20
2023-03-21T03:46:12.253Z,3.60
2023-03-21T03:48:52.663Z,3.15
2023-03-21T03:51:25.284Z,3.35
2023-03-21T03:54:18.890Z,3.28
2023-03-21T03:56:46.827Z,2.95
2023-03-21T03:59:21.935Z,3.53
2023-03-21T04:01:58.520Z,2.90
2023-03-21T04:04:29.422Z,3.70
2023-03-21T04:06:58.379Z,2.92
2023-03-21T04:09:40.904Z,2.90
2023-03-21T04:12:10.821Z,2.67
2023-03-21T04:14:45.719Z,2.95
2023-03-21T04:17:15.489Z,3.03
2023-03-21T04:19:42.447Z,2.88
2023-03-21T04:22:08.912Z,3.13
2023-03-21T04:24:39.560Z,2.40
2023-03-21T04:27:06.179Z,2.92
2023-03-21T04:29:38.857Z,2.75
2023-03-21T04:32:33.898Z,2.50
2023-03-21T04:35:08.331Z,2.88
2023-03-21T04:37:34.967Z,2.67
2023-03-21T04:40:06.663Z,2.60
2023-03-21T04:42:34.112Z,2.05
2023-03-21T04:45:01.179Z,2.45
2023-03-21T04:47:27.770Z,2.35
2023-03-21T04:49:55.099Z,2.60
2023-03-21T04:52:21.475Z,2.72
2023-03-21T04:54:47.856Z,2.92
2023-03-21T04:57:14.362Z,2.90
2023-03-21T04:59:42.260Z,2.80
2023-03-21T05:02:08.998Z,2.40
2023-03-21T05:04:35.568Z,2.42
2023-03-21T05:07:02.087Z,2.80
2023-03-21T05:09:29.665Z,2.05
2023-03-21T05:11:56.112Z,1.60
2023-03-21T05:14:25.410Z,2.60
2023-03-21T05:16:56.323Z,2.00
2023-03-21T05:19:34.695Z,1.85
2023-03-21T05:22:05.900Z,2.65
2023-03-21T05:24:32.832Z,2.63
2023-03-21T05:27:03.650Z,2.38
2023-03-21T05:29:37.932Z,2.65
2023-03-21T05:32:06.672Z,2.90
2023-03-21T05:34:33.112Z,2.20
2023-03-21T05:37:00.441Z,2.35
2023-03-21T05:39:36.923Z,2.25
2023-03-21T05:42:09.958Z,2.25
2023-03-21T05:44:37.143Z,2.35
2023-03-21T05:47:06.583Z,2.58
2023-03-21T05:49:41.580Z,2.70
2023-03-21T05:52:08.609Z,1.88
2023-03-21T05:54:35.970Z,2.53
2023-03-21T05:57:02.905Z,3.28
2023-03-21T05:59:51.689Z,2.53
2023-03-21T06:02:19.136Z,2.85
2023-03-21T06:04:47.252Z,2.85
2023-03-21T06:07:13.983Z,2.75
2023-03-21T06:09:41.229Z,2.30
2023-03-21T06:12:07.798Z,2.78
2023-03-21T06:14:47.999Z,2.60
2023-03-21T06:17:27.388Z,2.35
2023-03-21T06:20:01.096Z,3.10
2023-03-21T06:22:31.630Z,3.13
2023-03-21T06:24:58.048Z,3.78
2023-03-21T06:27:24.682Z,2.67
2023-03-21T06:29:53.914Z,3.00
2023-03-21T06:32:21.348Z,6.28
2023-03-21T06:34:53.155Z,5.95
2023-03-21T06:37:20.065Z,4.50
2023-03-21T06:39:47.004Z,3.85
2023-03-21T06:42:13.999Z,5.43
2023-03-21T06:44:40.817Z,5.55
2023-03-21T06:47:12.424Z,6.00
2023-03-21T06:49:42.797Z,7.43
2023-03-21T06:52:11.218Z,6.97
2023-03-21T06:54:38.245Z,6.53
2023-03-21T06:57:10.444Z,8.63
2023-03-21T06:59:39.546Z,4.70
2023-03-21T07:02:10.267Z,6.78
2023-03-21T07:04:41.719Z,4.95
2023-03-21T07:07:13.608Z,4.65
2023-03-21T07:09:41.160Z,4.20
2023-03-21T07:12:08.069Z,3.75
2023-03-21T07:14:58.301Z,5.15
2023-03-21T07:17:24.737Z,5.45
2023-03-21T07:19:51.132Z,4.57
2023-03-21T07:22:18.723Z,4.03
2023-03-21T07:24:53.379Z,5.90
2023-03-21T07:27:25.656Z,3.67
2023-03-21T07:29:52.036Z,5.95
2023-03-21T07:32:18.412Z,5.18
2023-03-21T07:34:44.800Z,6.10
2023-03-21T07:37:11.206Z,6.40
2023-03-21T07:39:38.314Z,4.68
2023-03-21T07:42:04.881Z,5.03
2023-03-21T07:44:37.504Z,4.75
2023-03-21T07:47:04.799Z,5.50
2023-03-21T07:49:31.930Z,5.53
2023-03-21T07:51:59.575Z,4.40
2023-03-21T07:54:26.075Z,5.75
2023-03-21T07:56:52.464Z,4.60
2023-03-21T07:59:18.877Z,3.50
2023-03-21T08:01:45.409Z,4.32
2023-03-21T08:04:12.065Z,3.15
2023-03-21T08:06:38.476Z,3.65
2023-03-21T08:09:05.590Z,3.42
2023-03-21T08:11:31.991Z,3.42
2023-03-21T08:13:59.318Z,3.97
2023-03-21T08:16:25.978Z,3.45
2023-03-21T08:18:52.378Z,4.10
2023-03-21T08:21:19.043Z,4.18
2023-03-21T08:23:45.662Z,4.72
2023-03-21T08:26:18.216Z,4.40
2023-03-21T08:28:44.796Z,4.30
2023-03-21T08:31:12.109Z,4.20
2023-03-21T08:33:39.264Z,3.47
2023-03-21T08:36:06.164Z,4.07
2023-03-21T08:38:33.557Z,2.80
2023-03-21T08:41:00.496Z,3.50
2023-03-21T08:43:27.928Z,4.35
2023-03-21T08:45:54.774Z,3.28
2023-03-21T08:48:21.912Z,2.72
2023-03-21T08:50:48.490Z,2.80
2023-03-21T08:53:14.898Z,2.85
2023-03-21T08:55:41.281Z,3.08
2023-03-21T08:58:07.895Z,3.28
2023-03-21T09:00:34.411Z,3.60
2023-03-21T09:03:01.370Z,3.35
2023-03-21T09:05:28.403Z,3.63
2023-03-21T09:07:54.875Z,2.92
2023-03-21T09:10:22.700Z,2.97
2023-03-21T09:12:50.398Z,3.05
2023-03-21T09:15:17.931Z,3.15
2023-03-21T09:17:48.900Z,3.63
2023-03-21T09:20:21.202Z,3.53
2023-03-21T09:22:48.498Z,3.45
2023-03-21T09:25:16.201Z,3.95
2023-03-21T09:27:44.919Z,3.65
2023-03-21T09:30:16.274Z,3.95
2023-03-21T09:32:48.244Z,3.10
2023-03-21T09:35:19.068Z,3.50
2023-03-21T09:37:49.043Z,3.90
2023-03-21T09:40:21.594Z,3.80
2023-03-21T09:42:51.350Z,4.28
2023-03-21T09:45:25.934Z,4.07
2023-03-21T09:47:53.712Z,3.90
2023-03-21T09:50:27.382Z,4.43
2023-03-21T09:53:05.809Z,3.83
2023-03-21T09:55:37.683Z,4.22
2023-03-21T09:58:07.286Z,4.22
2023-03-21T10:00:37.468Z,3.70
2023-03-21T10:03:07.375Z,5.28
2023-03-21T10:05:35.613Z,3.83
2023-03-21T10:08:05.325Z,4.45
2023-03-21T10:10:37.314Z,3.65
2023-03-21T10:13:05.560Z,3.38
2023-03-21T10:15:32.028Z,4.38
2023-03-21T10:18:01.828Z,3.40
2023-03-21T10:20:35.957Z,3.42
2023-03-21T10:23:06.983Z,3.75
2023-03-21T10:25:36.466Z,3.70
2023-03-21T10:28:05.547Z,4.18
2023-03-21T10:30:38.508Z,3.58
2023-03-21T10:33:09.422Z,3.58
2023-03-21T10:35:37.508Z,3.83
2023-03-21T10:38:05.375Z,4.10
2023-03-21T10:40:33.545Z,3.58
2023-03-21T10:43:18.318Z,4.50
2023-03-21T10:45:48.304Z,4.45
2023-03-21T10:48:15.504Z,4.65
2023-03-21T10:50:42.831Z,4.18
2023-03-21T10:53:15.716Z,3.80
2023-03-21T10:55:43.073Z,4.75
2023-03-21T10:58:18.699Z,3.75
2023-03-21T11:00:46.471Z,3.53
2023-03-21T11:03:23.291Z,4.65
2023-03-21T11:05:53.635Z,3.67
2023-03-21T11:08:20.329Z,4.15
2023-03-21T11:10:58.935Z,3.78
2023-03-21T11:13:27.127Z,3.53
2023-03-21T11:16:03.706Z,4.20
2023-03-21T11:18:31.228Z,3.28
2023-03-21T11:20:59.133Z,3.40
2023-03-21T11:23:26.922Z,3.28
2023-03-21T11:25:53.465Z,2.97
2023-03-21T11:28:22.372Z,3.25
2023-03-21T11:30:56.575Z,2.75
2023-03-21T11:33:26.987Z,2.97
2023-03-21T11:36:00.492Z,3.45
2023-03-21T11:38:30.456Z,2.60
2023-03-21T11:40:58.356Z,2.35
2023-03-21T11:43:24.777Z,1.63
2023-03-21T11:45:57.452Z,1.92
2023-03-21T11:48:24.290Z,1.75
2023-03-21T11:50:52.649Z,1.60
2023-03-21T11:53:22.244Z,1.17
2023-03-21T11:55:56.879Z,1.17
2023-03-21T11:58:32.820Z,1.70
2023-03-21T12:00:59.284Z,2.10
2023-03-21T12:03:48.445Z,1.80
2023-03-21T12:06:47.983Z,1.23
2023-03-21T12:09:14.420Z,1.83
2023-03-21T12:11:46.729Z,1.25
2023-03-21T12:14:31.669Z,1.13
2023-03-21T12:17:15.661Z,1.40
2023-03-21T12:19:49.059Z,1.10
2023-03-21T12:22:37.724Z,0.90
2023-03-21T12:25:14.330Z,1.02
2023-03-21T12:28:03.670Z,1.00
2023-03-21T12:30:41.232Z,0.88
2023-03-21T12:33:14.633Z,1.60
2023-03-21T12:36:00.491Z,0.85
2023-03-21T12:38:37.332Z,1.67
2023-03-21T12:41:12.923Z,1.23
2023-03-21T12:43:48.337Z,1.70
2023-03-21T12:46:17.951Z,1.23
2023-03-21T12:48:44.540Z,1.58
2023-03-21T12:51:15.641Z,1.50
2023-03-21T12:53:48.244Z,1.20
2023-03-21T12:56:23.792Z,1.65
2023-03-21T12:58:54.415Z,1.35
2023-03-21T13:01:22.857Z,1.15
2023-03-21T13:04:06.281Z,1.33
2023-03-21T13:06:33.558Z,1.70
2023-03-21T13:09:08.331Z,1.42
2023-03-21T13:11:35.375Z,1.67
2023-03-21T13:14:05.460Z,2.05
2023-03-21T13:16:37.198Z,1.63
2023-03-21T13:19:19.059Z,1.10
2023-03-21T13:22:06.471Z,2.15
2023-03-21T13:24:38.001Z,1.50
2023-03-21T13:27:24.773Z,0.90
2023-03-21T13:29:52.727Z,0.82
2023-03-21T13:32:29.778Z,0.90
2023-03-21T13:35:00.550Z,1.25
2023-03-21T13:37:32.394Z,1.13
2023-03-21T13:40:09.294Z,0.68
2023-03-21T13:42:42.408Z,0.60
2023-03-21T13:45:21.705Z,0.70
2023-03-21T13:47:53.334Z,1.15
2023-03-21T13:50:22.916Z,1.13
2023-03-21T13:53:09.247Z,1.08
2023-03-21T13:55:41.385Z,1.17
2023-03-21T13:58:22.901Z,0.88
2023-03-21T14:03:17.967Z,1.13
2023-03-21T14:05:49.107Z,0.90
2023-03-21T14:10:57.667Z,0.88
2023-03-21T14:13:25.396Z,1.52
2023-03-21T14:15:58.017Z,0.70
2023-03-21T14:18:28.007Z,0.95
2023-03-21T14:21:23.395Z,1.55
2023-03-21T14:23:57.984Z,0.65
2023-03-21T14:26:25.652Z,1.45
2023-03-21T14:28:52.878Z,1.42
2023-03-21T14:31:19.490Z,1.10
2023-03-21T14:33:49.448Z,1.63
2023-03-21T14:36:20.843Z,1.60
2023-03-21T14:41:24.613Z,1.42
2023-03-21T14:44:10.875Z,1.63
2023-03-21T14:46:37.436Z,1.35
2023-03-21T14:49:13.206Z,1.45
2023-03-21T14:51:41.804Z,1.90
2023-03-21T14:54:12.067Z,1.70
2023-03-21T14:56:38.779Z,1.55
2023-03-21T14:59:05.302Z,1.85
2023-03-21T15:01:34.629Z,2.03
2023-03-21T15:04:04.087Z,1.85
2023-03-21T15:06:30.637Z,1.70
2023-03-21T15:08:58.011Z,1.50
2023-03-21T15:11:32.461Z,1.95
2023-03-21T15:14:00.138Z,1.60
2023-03-21T15:16:26.797Z,1.40
2023-03-21T15:18:53.406Z,1.40
2023-03-21T15:21:23.331Z,1.42
2023-03-21T15:24:02.608Z,1.33
2023-03-21T15:26:31.608Z,0.85
2023-03-21T15:28:58.805Z,0.90
2023-03-21T15:31:29.584Z,0.70
2023-03-21T15:33:56.510Z,1.00
2023-03-21T15:36:26.066Z,0.90
2023-03-21T15:38:52.734Z,1.17
2023-03-21T15:41:19.144Z,1.33
2023-03-21T15:44:01.089Z,1.10
2023-03-21T15:46:33.597Z,0.80
2023-03-21T15:49:15.032Z,0.93
2023-03-21T15:54:16.356Z,1.20
2023-03-21T15:56:45.873Z,1.05
2023-03-21T15:59:14.098Z,0.90
2023-03-21T16:01:40.746Z,0.95
2023-03-21T16:04:11.029Z,0.95
2023-03-21T16:06:38.267Z,1.45
2023-03-21T16:09:04.668Z,0.95
2023-03-21T16:11:41.794Z,1.55
2023-03-21T16:14:08.640Z,1.20
2023-03-21T16:16:35.453Z,1.05
2023-03-21T16:19:02.841Z,1.42
2023-03-21T16:21:30.606Z,0.75
2023-03-21T16:23:58.116Z,1.50
2023-03-21T16:26:26.139Z,1.25
2023-03-21T16:28:53.005Z,1.40
2023-03-21T16:31:23.592Z,1.20
2023-03-21T16:33:51.207Z,0.90
2023-03-21T16:36:19.306Z,0.90
2023-03-21T16:38:46.513Z,1.10
2023-03-21T16:41:14.173Z,1.05
2023-03-21T16:43:43.154Z,0.63
2023-03-21T16:46:13.609Z,0.80
2023-03-21T16:48:40.813Z,0.80
2023-03-21T16:51:07.529Z,1.00
2023-03-21T16:53:33.936Z,0.90
2023-03-21T16:56:02.673Z,0.77
2023-03-21T16:58:29.728Z,1.05
2023-03-21T17:00:57.056Z,1.00
2023-03-21T17:03:23.861Z,0.90
2023-03-21T17:05:50.291Z,1.17
2023-03-21T17:08:18.184Z,0.90
2023-03-21T17:10:45.416Z,1.10
2023-03-21T17:13:11.964Z,1.67
2023-03-21T17:15:39.493Z,3.70
2023-03-21T17:18:05.897Z,3.42
2023-03-21T17:20:33.281Z,4.72
2023-03-21T17:23:00.115Z,3.22
2023-03-21T17:25:27.244Z,1.42
2023-03-21T17:27:54.109Z,1.08
2023-03-21T17:30:21.097Z,1.20
2023-03-21T17:32:48.029Z,0.98
2023-03-21T17:35:14.447Z,1.00
2023-03-21T17:37:40.909Z,0.98
2023-03-21T17:40:08.246Z,1.13
2023-03-21T17:42:34.662Z,1.27
2023-03-21T17:45:01.032Z,1.48
2023-03-21T17:47:29.734Z,1.40
2023-03-21T17:49:56.403Z,1.83
2023-03-21T17:52:24.681Z,2.50
2023-03-21T17:54:51.171Z,4.10
2023-03-21T17:57:17.854Z,4.63
2023-03-21T17:59:44.301Z,4.20
2023-03-21T18:02:10.812Z,4.75
2023-03-21T18:04:37.331Z,4.50
2023-03-21T18:07:04.057Z,4.40
2023-03-21T18:09:30.521Z,4.63
2023-03-21T18:11:56.901Z,3.60
2023-03-21T18:14:27.892Z,3.92
2023-03-21T18:16:54.958Z,3.60
2023-03-21T18:19:21.328Z,2.85
2023-03-21T18:21:47.778Z,2.75
2023-03-21T18:24:14.950Z,2.88
2023-03-21T18:26:42.299Z,2.58
2023-03-21T18:30:13.197Z,2.83
2023-03-21T18:32:05.913Z,3.78
2023-03-21T18:34:34.216Z,3.55
2023-03-21T18:37:03.681Z,4.32
2023-03-21T18:39:30.900Z,3.63
2023-03-21T18:42:02.148Z,3.35
2023-03-21T18:44:29.889Z,3.95
2023-03-21T18:46:57.408Z,3.03
2023-03-21T18:52:10.758Z,2.42
2023-03-21T18:54:37.682Z,2.55
2023-03-21T18:59:51.890Z,4.15
2023-03-21T19:02:18.388Z,3.13
2023-03-21T19:04:45.133Z,4.55
2023-03-21T19:07:11.957Z,4.18
2023-03-21T19:10:01.338Z,4.45
2023-03-21T19:12:25.388Z,4.63
2023-03-21T19:14:51.836Z,3.53
2023-03-21T19:20:05.666Z,3.80
2023-03-21T19:22:32.071Z,3.10
2023-03-21T19:24:58.706Z,2.90
2023-03-21T19:27:25.137Z,4.40
2023-03-21T19:30:08.406Z,4.32
2023-03-21T19:32:38.257Z,4.22
2023-03-21T19:35:05.178Z,3.88
2023-03-21T19:37:35.285Z,3.75
2023-03-21T19:40:02.121Z,4.20
2023-03-21T19:42:30.692Z,4.00
2023-03-21T19:44:57.318Z,4.68
2023-03-21T19:47:23.685Z,4.35
2023-03-21T19:52:40.390Z,2.75
2023-03-21T19:55:06.939Z,2.67
2023-03-21T19:57:34.857Z,2.72
2023-03-21T20:00:01.749Z,2.60
2023-03-21T20:02:35.462Z,3.22
2023-03-21T20:05:02.688Z,3.67
2023-03-21T20:07:30.667Z,3.38
2023-03-21T20:09:57.526Z,2.13
2023-03-21T20:12:24.022Z,2.13
2023-03-21T20:14:55.996Z,2.17
2023-03-21T20:17:28.042Z,2.22
2023-03-21T20:19:57.869Z,2.25
2023-03-21T20:22:46.016Z,2.40
2023-03-21T20:25:11.543Z,1.98
2023-03-21T20:27:40.084Z,1.70
2023-03-21T20:30:12.329Z,2.83
2023-03-21T20:35:18.851Z,2.10
2023-03-21T20:37:49.716Z,2.45
2023-03-21T20:40:17.442Z,1.83
2023-03-21T20:42:44.218Z,2.70
2023-03-21T20:45:14.580Z,2.70
2023-03-21T20:47:41.262Z,2.55
2023-03-21T20:50:08.563Z,3.08
2023-03-21T20:53:04.970Z,3.33
2023-03-21T20:55:21.603Z,2.58
2023-03-21T20:57:48.792Z,3.08
2023-03-21T21:00:17.107Z,3.50
2023-03-21T21:02:44.550Z,2.97
2023-03-21T21:05:25.129Z,2.17
2023-03-21T21:07:54.100Z,2.60
2023-03-21T21:10:22.344Z,3.38
2023-03-21T21:12:48.816Z,2.67
2023-03-21T21:15:18.264Z,2.67
2023-03-21T21:18:05.636Z,2.92
2023-03-21T21:20:33.508Z,4.75
2023-03-21T21:23:00.900Z,3.15
2023-03-21T21:25:29.017Z,3.45
2023-03-21T21:27:55.515Z,3.30
2023-03-21T21:30:22.517Z,2.40
2023-03-21T21:32:49.446Z,3.13
2023-03-21T21:35:17.474Z,2.38
2023-03-21T21:37:43.934Z,2.80
2023-03-21T21:40:15.575Z,2.72
2023-03-21T21:42:43.131Z,3.53
2023-03-21T21:45:10.146Z,3.00
2023-03-21T21:47:36.532Z,2.70
2023-03-21T21:50:03.311Z,2.33
2023-03-21T21:52:29.852Z,2.70
2023-03-21T21:54:56.252Z,2.83
2023-03-21T21:57:22.770Z,2.47
2023-03-21T21:59:54.048Z,3.60
2023-03-21T22:02:23.826Z,3.30
2023-03-21T22:04:53.413Z,3.50
2023-03-21T22:07:19.852Z,3.67
2023-03-21T22:09:46.974Z,3.83
2023-03-21T22:12:13.349Z,3.80
2023-03-21T22:14:39.757Z,3.30
2023-03-21T22:17:07.348Z,4.95
2023-03-21T22:19:33.739Z,6.25
2023-03-21T22:22:00.178Z,6.88
2023-03-21T22:24:26.876Z,6.53
2023-03-21T22:26:57.950Z,5.47
2023-03-21T22:29:28.258Z,6.05
2023-03-21T22:31:54.694Z,4.95
2023-03-21T22:34:21.907Z,5.80
2023-03-21T22:36:50.405Z,4.68
2023-03-21T22:39:18.020Z,5.55
2023-03-21T22:41:44.512Z,4.97
2023-03-21T22:44:11.121Z,5.57
2023-03-21T22:46:37.827Z,5.00
2023-03-21T22:49:04.356Z,5.97
2023-03-21T22:51:30.790Z,4.57
2023-03-21T22:53:57.194Z,5.35
2023-03-21T22:56:23.610Z,4.93
2023-03-21T22:58:49.978Z,4.25
2023-03-21T23:01:16.480Z,4.85
2023-03-21T23:03:42.988Z,5.05
2023-03-21T23:06:09.507Z,5.63
2023-03-21T23:08:35.870Z,4.40
2023-03-21T23:11:06.180Z,4.97
2023-03-21T23:13:32.608Z,4.60
2023-03-21T23:16:06.009Z,4.72
2023-03-21T23:18:33.663Z,3.80
2023-03-21T23:21:00.263Z,4.47
2023-03-21T23:23:26.674Z,4.63
2023-03-21T23:25:53.242Z,3.95
2023-03-21T23:28:19.666Z,3.47
2023-03-21T23:30:46.110Z,4.25
2023-03-21T23:33:12.520Z,3.15
2023-03-21T23:35:38.971Z,3.33
2023-03-21T23:38:05.597Z,4.13
2023-03-21T23:40:32.003Z,3.42
2023-03-21T23:42:59.612Z,3.40
2023-03-21T23:45:26.135Z,3.47
2023-03-21T23:47:52.614Z,3.75
2023-03-21T23:50:19.059Z,3.97
2023-03-21T23:52:45.996Z,2.90
2023-03-21T23:55:12.401Z,3.50
2023-03-21T23:57:41.829Z,3.20
